sensor_id;sensor_type;location;lat;lon;timestamp;temperature;humidity
12289;DHT22;6207;49.308;7.336;2023-02-23T00:01:28;8.60;99.90
12289;DHT22;6207;49.308;7.336;2023-02-23T00:03:56;8.60;99.90
12289;DHT22;6207;49.308;7.336;2023-02-23T00:06:26;8.60;99.90
12289;DHT22;6207;49.308;7.336;2023-02-23T00:08:53;8.60;99.90
12289;DHT22;6207;49.308;7.336;2023-02-23T00:11:20;8.60;99.90
12289;DHT22;6207;49.308;7.336;2023-02-23T00:13:49;8.60;99.90
12289;DHT22;6207;49.308;7.336;2023-02-23T00:16:19;8.60;99.90
12289;DHT22;6207;49.308;7.336;2023-02-23T00:18:49;8.90;99.90
12289;DHT22;6207;49.308;7.336;2023-02-23T00:21:27;8.60;99.90
12289;DHT22;6207;49.308;7.336;2023-02-23T00:23:57;8.60;99.90
12289;DHT22;6207;49.308;7.336;2023-02-23T00:26:27;8.60;99.90
12289;DHT22;6207;49.308;7.336;2023-02-23T00:28:57;8.80;99.90
12289;DHT22;6207;49.308;7.336;2023-02-23T00:31:25;8.60;99.90
12289;DHT22;6207;49.308;7.336;2023-02-23T00:33:55;8.60;99.90
12289;DHT22;6207;49.308;7.336;2023-02-23T00:36:25;8.60;99.90
12289;DHT22;6207;49.308;7.336;2023-02-23T00:38:53;8.60;99.90
12289;DHT22;6207;49.308;7.336;2023-02-23T00:41:21;8.60;99.90
12289;DHT22;6207;49.308;7.336;2023-02-23T00:43:58;8.50;99.90
12289;DHT22;6207;49.308;7.336;2023-02-23T00:46:28;8.50;99.90
12289;DHT22;6207;49.308;7.336;2023-02-23T00:48:57;8.50;99.90
12289;DHT22;6207;49.308;7.336;2023-02-23T00:51:26;8.50;99.90
12289;DHT22;6207;49.308;7.336;2023-02-23T00:53:53;8.60;99.90
12289;DHT22;6207;49.308;7.336;2023-02-23T00:56:21;8.50;99.90
12289;DHT22;6207;49.308;7.336;2023-02-23T00:58:47;8.50;99.90
12289;DHT22;6207;49.308;7.336;2023-02-23T01:01:15;8.50;99.90
12289;DHT22;6207;49.308;7.336;2023-02-23T01:03:43;8.50;99.90
12289;DHT22;6207;49.308;7.336;2023-02-23T01:06:13;8.50;99.90
12289;DHT22;6207;49.308;7.336;2023-02-23T01:08:46;8.50;99.90
12289;DHT22;6207;49.308;7.336;2023-02-23T01:11:18;8.50;99.90
12289;DHT22;6207;49.308;7.336;2023-02-23T01:13:47;8.50;99.90
12289;DHT22;6207;49.308;7.336;2023-02-23T01:16:19;8.50;99.90
12289;DHT22;6207;49.308;7.336;2023-02-23T01:18:46;8.50;99.90
12289;DHT22;6207;49.308;7.336;2023-02-23T01:21:19;8.50;99.90
12289;DHT22;6207;49.308;7.336;2023-02-23T01:23:46;8.50;99.90
12289;DHT22;6207;49.308;7.336;2023-02-23T01:26:21;8.50;99.90
12289;DHT22;6207;49.308;7.336;2023-02-23T01:28:53;8.60;99.90
12289;DHT22;6207;49.308;7.336;2023-02-23T01:31:21;8.50;99.90
12289;DHT22;6207;49.308;7.336;2023-02-23T01:34:09;8.50;99.90
12289;DHT22;6207;49.308;7.336;2023-02-23T01:36:40;8.50;99.90
12289;DHT22;6207;49.308;7.336;2023-02-23T01:39:11;8.50;99.90
12289;DHT22;6207;49.308;7.336;2023-02-23T01:41:38;8.50;99.90
12289;DHT22;6207;49.308;7.336;2023-02-23T01:46:57;8.50;99.90
12289;DHT22;6207;49.308;7.336;2023-02-23T01:49:27;8.50;99.90
12289;DHT22;6207;49.308;7.336;2023-02-23T01:52:09;8.50;99.90
12289;DHT22;6207;49.308;7.336;2023-02-23T01:54:40;8.50;99.90
12289;DHT22;6207;49.308;7.336;2023-02-23T01:57:11;8.50;99.90
12289;DHT22;6207;49.308;7.336;2023-02-23T01:59:41;8.50;99.90
12289;DHT22;6207;49.308;7.336;2023-02-23T02:02:09;8.50;99.90
12289;DHT22;6207;49.308;7.336;2023-02-23T02:04:37;8.50;99.90
12289;DHT22;6207;49.308;7.336;2023-02-23T02:07:15;8.50;99.90
12289;DHT22;6207;49.308;7.336;2023-02-23T02:09:43;8.50;99.90
12289;DHT22;6207;49.308;7.336;2023-02-23T02:12:30;8.50;99.90
12289;DHT22;6207;49.308;7.336;2023-02-23T02:14:58;8.50;99.90
12289;DHT22;6207;49.308;7.336;2023-02-23T02:17:44;8.50;99.90
12289;DHT22;6207;49.308;7.336;2023-02-23T02:29:44;8.50;99.90
12289;DHT22;6207;49.308;7.336;2023-02-23T02:43:00;8.40;99.90
12289;DHT22;6207;49.308;7.336;2023-02-23T02:51:19;8.40;99.90
12289;DHT22;6207;49.308;7.336;2023-02-23T02:56:35;8.40;99.90
12289;DHT22;6207;49.308;7.336;2023-02-23T02:59:12;8.40;99.90
12289;DHT22;6207;49.308;7.336;2023-02-23T03:01:58;8.40;99.90
12289;DHT22;6207;49.308;7.336;2023-02-23T03:04:43;8.40;99.90
12289;DHT22;6207;49.308;7.336;2023-02-23T03:10:43;8.40;99.90
12289;DHT22;6207;49.308;7.336;2023-02-23T03:13:43;8.40;99.90
12289;DHT22;6207;49.308;7.336;2023-02-23T03:19:59;8.40;99.90
12289;DHT22;6207;49.308;7.336;2023-02-23T03:29:41;8.40;99.90
12289;DHT22;6207;49.308;7.336;2023-02-23T03:32:40;8.40;99.90
12289;DHT22;6207;49.308;7.336;2023-02-23T03:35:49;8.30;99.90
12289;DHT22;6207;49.308;7.336;2023-02-23T03:38:41;8.30;99.90
12289;DHT22;6207;49.308;7.336;2023-02-23T03:41:30;8.30;99.90
12289;DHT22;6207;49.308;7.336;2023-02-23T03:44:25;8.30;99.90
12289;DHT22;6207;49.308;7.336;2023-02-23T03:47:14;8.30;99.90
12289;DHT22;6207;49.308;7.336;2023-02-23T03:50:04;8.30;99.90
12289;DHT22;6207;49.308;7.336;2023-02-23T03:52:56;8.30;99.90
12289;DHT22;6207;49.308;7.336;2023-02-23T03:55:46;8.30;99.90
12289;DHT22;6207;49.308;7.336;2023-02-23T03:58:41;8.30;99.90
12289;DHT22;6207;49.308;7.336;2023-02-23T04:01:30;8.30;99.90
12289;DHT22;6207;49.308;7.336;2023-02-23T04:04:17;8.30;99.90
12289;DHT22;6207;49.308;7.336;2023-02-23T04:07:03;8.30;99.90
12289;DHT22;6207;49.308;7.336;2023-02-23T04:09:51;8.30;99.90
12289;DHT22;6207;49.308;7.336;2023-02-23T04:15:36;8.30;99.90
12289;DHT22;6207;49.308;7.336;2023-02-23T04:18:10;8.30;99.90
12289;DHT22;6207;49.308;7.336;2023-02-23T04:20:37;8.30;99.90
12289;DHT22;6207;49.308;7.336;2023-02-23T04:23:04;8.30;99.90
12289;DHT22;6207;49.308;7.336;2023-02-23T04:25:31;8.30;99.90
12289;DHT22;6207;49.308;7.336;2023-02-23T04:27:57;8.30;99.90
12289;DHT22;6207;49.308;7.336;2023-02-23T04:30:24;8.30;99.90
12289;DHT22;6207;49.308;7.336;2023-02-23T04:32:54;8.30;99.90
12289;DHT22;6207;49.308;7.336;2023-02-23T04:35:21;8.30;99.90
12289;DHT22;6207;49.308;7.336;2023-02-23T04:37:48;8.30;99.90
12289;DHT22;6207;49.308;7.336;2023-02-23T04:40:14;8.20;99.90
12289;DHT22;6207;49.308;7.336;2023-02-23T04:42:41;8.20;99.90
12289;DHT22;6207;49.308;7.336;2023-02-23T04:45:08;8.10;99.90
12289;DHT22;6207;49.308;7.336;2023-02-23T04:47:35;8.10;99.90
12289;DHT22;6207;49.308;7.336;2023-02-23T04:50:03;8.00;99.90
12289;DHT22;6207;49.308;7.336;2023-02-23T04:52:30;8.00;99.90
12289;DHT22;6207;49.308;7.336;2023-02-23T04:54:56;8.00;99.90
12289;DHT22;6207;49.308;7.336;2023-02-23T04:57:23;8.00;99.90
12289;DHT22;6207;49.308;7.336;2023-02-23T04:59:50;8.00;99.90
12289;DHT22;6207;49.308;7.336;2023-02-23T05:02:16;8.00;99.90
12289;DHT22;6207;49.308;7.336;2023-02-23T05:04:43;8.00;99.90
12289;DHT22;6207;49.308;7.336;2023-02-23T05:07:10;8.10;99.90
12289;DHT22;6207;49.308;7.336;2023-02-23T05:09:36;8.10;99.90
12289;DHT22;6207;49.308;7.336;2023-02-23T05:12:03;8.10;99.90
12289;DHT22;6207;49.308;7.336;2023-02-23T05:14:30;8.10;99.90
12289;DHT22;6207;49.308;7.336;2023-02-23T05:16:57;8.10;99.90
12289;DHT22;6207;49.308;7.336;2023-02-23T05:19:23;8.10;99.90
12289;DHT22;6207;49.308;7.336;2023-02-23T05:21:50;8.10;99.90
12289;DHT22;6207;49.308;7.336;2023-02-23T05:24:17;8.10;99.90
12289;DHT22;6207;49.308;7.336;2023-02-23T05:26:44;8.10;99.90
12289;DHT22;6207;49.308;7.336;2023-02-23T05:29:11;8.10;99.90
12289;DHT22;6207;49.308;7.336;2023-02-23T05:31:38;8.10;99.90
12289;DHT22;6207;49.308;7.336;2023-02-23T05:34:04;8.10;99.90
12289;DHT22;6207;49.308;7.336;2023-02-23T05:36:32;8.00;99.90
12289;DHT22;6207;49.308;7.336;2023-02-23T05:38:58;8.10;99.90
12289;DHT22;6207;49.308;7.336;2023-02-23T05:41:25;8.00;99.90
12289;DHT22;6207;49.308;7.336;2023-02-23T05:43:53;8.00;99.90
12289;DHT22;6207;49.308;7.336;2023-02-23T05:46:23;8.00;99.90
12289;DHT22;6207;49.308;7.336;2023-02-23T05:48:54;8.00;99.90
12289;DHT22;6207;49.308;7.336;2023-02-23T05:51:21;8.00;99.90
12289;DHT22;6207;49.308;7.336;2023-02-23T05:53:47;8.00;99.90
12289;DHT22;6207;49.308;7.336;2023-02-23T05:56:15;8.00;99.90
12289;DHT22;6207;49.308;7.336;2023-02-23T05:58:50;8.00;99.90
12289;DHT22;6207;49.308;7.336;2023-02-23T06:01:18;7.90;99.90
12289;DHT22;6207;49.308;7.336;2023-02-23T06:03:46;7.80;99.90
12289;DHT22;6207;49.308;7.336;2023-02-23T06:06:13;7.70;99.90
12289;DHT22;6207;49.308;7.336;2023-02-23T06:08:40;7.60;99.90
12289;DHT22;6207;49.308;7.336;2023-02-23T06:11:08;7.60;99.90
12289;DHT22;6207;49.308;7.336;2023-02-23T06:13:34;7.60;99.90
12289;DHT22;6207;49.308;7.336;2023-02-23T06:16:01;7.50;99.90
12289;DHT22;6207;49.308;7.336;2023-02-23T06:18:29;7.50;99.90
12289;DHT22;6207;49.308;7.336;2023-02-23T06:20:59;7.50;99.90
12289;DHT22;6207;49.308;7.336;2023-02-23T06:23:27;7.40;99.90
12289;DHT22;6207;49.308;7.336;2023-02-23T06:25:55;7.40;99.90
12289;DHT22;6207;49.308;7.336;2023-02-23T06:28:21;7.30;99.90
12289;DHT22;6207;49.308;7.336;2023-02-23T06:30:53;7.30;99.90
12289;DHT22;6207;49.308;7.336;2023-02-23T06:33:21;7.30;99.90
12289;DHT22;6207;49.308;7.336;2023-02-23T06:35:48;7.40;99.90
12289;DHT22;6207;49.308;7.336;2023-02-23T06:38:15;7.40;99.90
12289;DHT22;6207;49.308;7.336;2023-02-23T06:40:41;7.40;99.90
12289;DHT22;6207;49.308;7.336;2023-02-23T06:43:09;7.40;99.90
12289;DHT22;6207;49.308;7.336;2023-02-23T06:45:35;7.50;99.90
12289;DHT22;6207;49.308;7.336;2023-02-23T06:48:02;7.50;99.90
12289;DHT22;6207;49.308;7.336;2023-02-23T06:50:29;7.60;99.90
12289;DHT22;6207;49.308;7.336;2023-02-23T06:52:56;7.60;99.90
12289;DHT22;6207;49.308;7.336;2023-02-23T06:55:24;7.60;99.90
12289;DHT22;6207;49.308;7.336;2023-02-23T06:57:51;7.60;99.90
12289;DHT22;6207;49.308;7.336;2023-02-23T07:00:20;7.70;99.90
12289;DHT22;6207;49.308;7.336;2023-02-23T07:02:47;7.70;99.90
12289;DHT22;6207;49.308;7.336;2023-02-23T07:05:13;7.80;99.90
12289;DHT22;6207;49.308;7.336;2023-02-23T07:07:40;7.90;99.90
12289;DHT22;6207;49.308;7.336;2023-02-23T07:10:07;7.90;99.90
12289;DHT22;6207;49.308;7.336;2023-02-23T07:12:34;7.90;99.90
12289;DHT22;6207;49.308;7.336;2023-02-23T07:15:01;8.00;99.90
12289;DHT22;6207;49.308;7.336;2023-02-23T07:17:27;8.00;99.90
12289;DHT22;6207;49.308;7.336;2023-02-23T07:19:54;8.10;99.90
12289;DHT22;6207;49.308;7.336;2023-02-23T07:22:21;8.20;99.90
12289;DHT22;6207;49.308;7.336;2023-02-23T07:24:48;8.20;99.90
12289;DHT22;6207;49.308;7.336;2023-02-23T07:27:14;8.10;99.90
12289;DHT22;6207;49.308;7.336;2023-02-23T07:29:41;8.10;99.90
12289;DHT22;6207;49.308;7.336;2023-02-23T07:32:07;8.10;99.90
12289;DHT22;6207;49.308;7.336;2023-02-23T07:34:34;8.30;99.90
12289;DHT22;6207;49.308;7.336;2023-02-23T07:37:02;8.30;99.90
12289;DHT22;6207;49.308;7.336;2023-02-23T07:39:29;8.40;99.90
12289;DHT22;6207;49.308;7.336;2023-02-23T07:41:57;8.40;99.90
12289;DHT22;6207;49.308;7.336;2023-02-23T07:44:23;8.40;99.90
12289;DHT22;6207;49.308;7.336;2023-02-23T07:46:50;8.30;99.90
12289;DHT22;6207;49.308;7.336;2023-02-23T07:49:18;8.50;99.90
12289;DHT22;6207;49.308;7.336;2023-02-23T07:51:44;8.50;99.90
12289;DHT22;6207;49.308;7.336;2023-02-23T07:54:11;8.70;99.90
12289;DHT22;6207;49.308;7.336;2023-02-23T07:56:38;8.60;99.90
12289;DHT22;6207;49.308;7.336;2023-02-23T07:59:05;8.60;99.90
12289;DHT22;6207;49.308;7.336;2023-02-23T08:01:32;8.50;99.90
12289;DHT22;6207;49.308;7.336;2023-02-23T08:03:59;8.40;99.90
12289;DHT22;6207;49.308;7.336;2023-02-23T08:06:26;8.50;99.90
12289;DHT22;6207;49.308;7.336;2023-02-23T08:08:53;8.50;99.90
12289;DHT22;6207;49.308;7.336;2023-02-23T08:11:19;8.50;99.90
12289;DHT22;6207;49.308;7.336;2023-02-23T08:13:46;8.40;99.90
12289;DHT22;6207;49.308;7.336;2023-02-23T08:16:13;8.40;99.90
12289;DHT22;6207;49.308;7.336;2023-02-23T08:18:40;8.50;99.90
12289;DHT22;6207;49.308;7.336;2023-02-23T08:21:06;8.40;99.90
12289;DHT22;6207;49.308;7.336;2023-02-23T08:23:33;8.50;99.90
12289;DHT22;6207;49.308;7.336;2023-02-23T08:26:00;8.50;99.90
12289;DHT22;6207;49.308;7.336;2023-02-23T08:28:28;8.60;99.90
12289;DHT22;6207;49.308;7.336;2023-02-23T08:30:54;8.60;99.90
12289;DHT22;6207;49.308;7.336;2023-02-23T08:33:21;8.40;99.90
12289;DHT22;6207;49.308;7.336;2023-02-23T08:35:48;8.50;99.90
12289;DHT22;6207;49.308;7.336;2023-02-23T08:38:15;8.60;99.90
12289;DHT22;6207;49.308;7.336;2023-02-23T08:40:43;8.60;99.90
12289;DHT22;6207;49.308;7.336;2023-02-23T08:43:10;8.50;99.90
12289;DHT22;6207;49.308;7.336;2023-02-23T08:45:37;8.50;99.90
12289;DHT22;6207;49.308;7.336;2023-02-23T08:48:06;8.80;99.90
12289;DHT22;6207;49.308;7.336;2023-02-23T08:50:33;8.80;99.90
12289;DHT22;6207;49.308;7.336;2023-02-23T08:52:59;8.90;99.90
12289;DHT22;6207;49.308;7.336;2023-02-23T08:55:26;8.80;99.90
12289;DHT22;6207;49.308;7.336;2023-02-23T08:57:53;8.80;99.90
12289;DHT22;6207;49.308;7.336;2023-02-23T09:00:20;8.90;99.90
12289;DHT22;6207;49.308;7.336;2023-02-23T09:02:46;9.20;99.90
12289;DHT22;6207;49.308;7.336;2023-02-23T09:05:14;9.40;99.90
12289;DHT22;6207;49.308;7.336;2023-02-23T09:07:41;9.10;99.90
12289;DHT22;6207;49.308;7.336;2023-02-23T09:10:13;9.00;99.90
12289;DHT22;6207;49.308;7.336;2023-02-23T09:12:41;9.10;99.90
12289;DHT22;6207;49.308;7.336;2023-02-23T09:15:08;9.10;99.90
12289;DHT22;6207;49.308;7.336;2023-02-23T09:17:35;9.10;99.90
12289;DHT22;6207;49.308;7.336;2023-02-23T09:20:03;9.10;99.90
12289;DHT22;6207;49.308;7.336;2023-02-23T09:22:30;8.90;99.90
12289;DHT22;6207;49.308;7.336;2023-02-23T09:24:57;9.10;99.90
12289;DHT22;6207;49.308;7.336;2023-02-23T09:27:24;8.90;99.90
12289;DHT22;6207;49.308;7.336;2023-02-23T09:29:51;8.90;99.90
12289;DHT22;6207;49.308;7.336;2023-02-23T09:32:17;8.80;99.90
12289;DHT22;6207;49.308;7.336;2023-02-23T09:34:44;8.90;99.90
12289;DHT22;6207;49.308;7.336;2023-02-23T09:37:11;8.90;99.90
12289;DHT22;6207;49.308;7.336;2023-02-23T09:39:37;8.90;99.90
12289;DHT22;6207;49.308;7.336;2023-02-23T09:42:32;9.10;99.90
12289;DHT22;6207;49.308;7.336;2023-02-23T09:50:33;9.40;99.90
12289;DHT22;6207;49.308;7.336;2023-02-23T09:53:07;9.50;99.90
12289;DHT22;6207;49.308;7.336;2023-02-23T09:55:38;9.50;99.90
12289;DHT22;6207;49.308;7.336;2023-02-23T09:58:23;9.40;99.90
12289;DHT22;6207;49.308;7.336;2023-02-23T10:01:36;9.30;99.90
12289;DHT22;6207;49.308;7.336;2023-02-23T10:04:00;9.30;99.90
12289;DHT22;6207;49.308;7.336;2023-02-23T10:06:28;9.30;99.90
12289;DHT22;6207;49.308;7.336;2023-02-23T10:09:09;9.50;99.90
12289;DHT22;6207;49.308;7.336;2023-02-23T10:11:51;10.60;99.90
12289;DHT22;6207;49.308;7.336;2023-02-23T10:20:18;10.30;99.90
12289;DHT22;6207;49.308;7.336;2023-02-23T10:22:49;10.50;99.90
12289;DHT22;6207;49.308;7.336;2023-02-23T10:25:20;10.60;99.90
12289;DHT22;6207;49.308;7.336;2023-02-23T10:27:49;10.80;99.90
12289;DHT22;6207;49.308;7.336;2023-02-23T10:30:18;11.10;99.90
12289;DHT22;6207;49.308;7.336;2023-02-23T10:32:56;11.10;99.90
12289;DHT22;6207;49.308;7.336;2023-02-23T10:35:27;11.00;99.90
12289;DHT22;6207;49.308;7.336;2023-02-23T10:37:55;11.30;99.90
12289;DHT22;6207;49.308;7.336;2023-02-23T10:40:24;11.60;99.90
12289;DHT22;6207;49.308;7.336;2023-02-23T10:42:56;11.30;99.90
12289;DHT22;6207;49.308;7.336;2023-02-23T10:45:25;11.40;99.90
12289;DHT22;6207;49.308;7.336;2023-02-23T10:48:07;11.40;99.90
12289;DHT22;6207;49.308;7.336;2023-02-23T10:50:38;11.20;99.90
12289;DHT22;6207;49.308;7.336;2023-02-23T10:53:17;11.10;99.90
12289;DHT22;6207;49.308;7.336;2023-02-23T10:55:46;10.90;99.90
12289;DHT22;6207;49.308;7.336;2023-02-23T10:58:25;10.50;99.90
12289;DHT22;6207;49.308;7.336;2023-02-23T11:01:00;10.80;99.90
12289;DHT22;6207;49.308;7.336;2023-02-23T11:03:41;11.00;99.90
12289;DHT22;6207;49.308;7.336;2023-02-23T11:06:36;11.00;99.90
12289;DHT22;6207;49.308;7.336;2023-02-23T11:09:25;10.80;99.90
12289;DHT22;6207;49.308;7.336;2023-02-23T11:12:19;10.80;99.90
12289;DHT22;6207;49.308;7.336;2023-02-23T11:14:52;10.70;99.90
12289;DHT22;6207;49.308;7.336;2023-02-23T11:17:27;10.80;99.90
12289;DHT22;6207;49.308;7.336;2023-02-23T11:20:03;11.00;99.90
12289;DHT22;6207;49.308;7.336;2023-02-23T11:22:34;11.00;99.90
12289;DHT22;6207;49.308;7.336;2023-02-23T11:25:10;10.90;99.90
12289;DHT22;6207;49.308;7.336;2023-02-23T11:27:45;10.60;99.90
12289;DHT22;6207;49.308;7.336;2023-02-23T11:30:12;10.70;99.90
12289;DHT22;6207;49.308;7.336;2023-02-23T11:32:40;10.70;99.90
12289;DHT22;6207;49.308;7.336;2023-02-23T11:37:49;10.60;99.90
12289;DHT22;6207;49.308;7.336;2023-02-23T11:40:28;10.70;99.90
12289;DHT22;6207;49.308;7.336;2023-02-23T11:45:53;10.90;99.90
12289;DHT22;6207;49.308;7.336;2023-02-23T11:48:34;11.00;99.90
12289;DHT22;6207;49.308;7.336;2023-02-23T11:51:04;11.10;99.90
12289;DHT22;6207;49.308;7.336;2023-02-23T11:53:35;11.10;99.90
12289;DHT22;6207;49.308;7.336;2023-02-23T11:56:03;11.10;99.90
12289;DHT22;6207;49.308;7.336;2023-02-23T11:58:43;11.30;99.90
12289;DHT22;6207;49.308;7.336;2023-02-23T12:01:17;11.30;99.90
12289;DHT22;6207;49.308;7.336;2023-02-23T12:03:50;11.20;99.90
12289;DHT22;6207;49.308;7.336;2023-02-23T12:06:35;11.20;99.90
12289;DHT22;6207;49.308;7.336;2023-02-23T12:11:36;11.50;99.90
12289;DHT22;6207;49.308;7.336;2023-02-23T12:14:13;11.60;99.90
12289;DHT22;6207;49.308;7.336;2023-02-23T12:16:50;11.30;99.90
12289;DHT22;6207;49.308;7.336;2023-02-23T12:19:30;11.20;99.90
12289;DHT22;6207;49.308;7.336;2023-02-23T12:27:28;11.60;99.90
12289;DHT22;6207;49.308;7.336;2023-02-23T12:32:57;11.50;99.90
12289;DHT22;6207;49.308;7.336;2023-02-23T12:41:11;11.50;99.90
12289;DHT22;6207;49.308;7.336;2023-02-23T12:43:43;11.60;99.90
12289;DHT22;6207;49.308;7.336;2023-02-23T12:46:39;11.70;99.90
12289;DHT22;6207;49.308;7.336;2023-02-23T12:49:42;11.60;99.90
12289;DHT22;6207;49.308;7.336;2023-02-23T12:52:17;11.60;99.90
12289;DHT22;6207;49.308;7.336;2023-02-23T12:54:45;11.40;99.90
12289;DHT22;6207;49.308;7.336;2023-02-23T13:00:01;11.30;99.90
12289;DHT22;6207;49.308;7.336;2023-02-23T13:02:50;11.40;99.90
12289;DHT22;6207;49.308;7.336;2023-02-23T13:05:25;11.10;99.90
12289;DHT22;6207;49.308;7.336;2023-02-23T13:08:21;11.00;99.90
12289;DHT22;6207;49.308;7.336;2023-02-23T13:11:05;11.00;99.90
12289;DHT22;6207;49.308;7.336;2023-02-23T13:13:48;11.20;99.90
12289;DHT22;6207;49.308;7.336;2023-02-23T13:16:41;11.40;99.90
12289;DHT22;6207;49.308;7.336;2023-02-23T13:19:17;11.40;99.90
12289;DHT22;6207;49.308;7.336;2023-02-23T13:21:56;11.30;99.90
12289;DHT22;6207;49.308;7.336;2023-02-23T13:24:27;11.50;99.90
12289;DHT22;6207;49.308;7.336;2023-02-23T13:27:00;11.50;99.90
12289;DHT22;6207;49.308;7.336;2023-02-23T13:29:40;11.50;99.90
12289;DHT22;6207;49.308;7.336;2023-02-23T13:32:12;11.50;99.90
12289;DHT22;6207;49.308;7.336;2023-02-23T13:34:49;11.30;99.90
12289;DHT22;6207;49.308;7.336;2023-02-23T13:37:21;11.40;99.90
12289;DHT22;6207;49.308;7.336;2023-02-23T13:42:44;11.50;99.90
12289;DHT22;6207;49.308;7.336;2023-02-23T13:53:40;11.70;99.90
12289;DHT22;6207;49.308;7.336;2023-02-23T13:56:21;11.70;99.90
12289;DHT22;6207;49.308;7.336;2023-02-23T13:58:57;11.50;99.90
12289;DHT22;6207;49.308;7.336;2023-02-23T14:03:58;11.60;99.90
12289;DHT22;6207;49.308;7.336;2023-02-23T14:06:29;11.70;99.90
12289;DHT22;6207;49.308;7.336;2023-02-23T14:09:08;11.70;99.90
12289;DHT22;6207;49.308;7.336;2023-02-23T14:14:17;11.80;99.90
12289;DHT22;6207;49.308;7.336;2023-02-23T14:20:01;11.60;99.90
12289;DHT22;6207;49.308;7.336;2023-02-23T14:22:35;11.80;99.90
12289;DHT22;6207;49.308;7.336;2023-02-23T14:28:21;11.80;99.90
12289;DHT22;6207;49.308;7.336;2023-02-23T14:46:35;11.50;99.90
12289;DHT22;6207;49.308;7.336;2023-02-23T14:49:17;11.40;99.90
12289;DHT22;6207;49.308;7.336;2023-02-23T14:51:53;11.50;99.90
12289;DHT22;6207;49.308;7.336;2023-02-23T14:54:29;11.50;99.90
12289;DHT22;6207;49.308;7.336;2023-02-23T14:56:57;11.30;99.90
12289;DHT22;6207;49.308;7.336;2023-02-23T14:59:35;11.20;99.90
12289;DHT22;6207;49.308;7.336;2023-02-23T15:02:17;11.20;99.90
12289;DHT22;6207;49.308;7.336;2023-02-23T15:04:45;11.40;99.90
12289;DHT22;6207;49.308;7.336;2023-02-23T15:07:36;11.50;99.90
12289;DHT22;6207;49.308;7.336;2023-02-23T15:10:15;11.60;99.90
12289;DHT22;6207;49.308;7.336;2023-02-23T15:12:44;11.70;99.90
12289;DHT22;6207;49.308;7.336;2023-02-23T15:15:17;11.70;99.90
12289;DHT22;6207;49.308;7.336;2023-02-23T15:17:47;11.80;99.90
12289;DHT22;6207;49.308;7.336;2023-02-23T15:20:16;11.70;99.90
12289;DHT22;6207;49.308;7.336;2023-02-23T15:22:51;11.60;99.90
12289;DHT22;6207;49.308;7.336;2023-02-23T15:25:23;11.40;99.90
12289;DHT22;6207;49.308;7.336;2023-02-23T15:27:51;11.40;99.90
12289;DHT22;6207;49.308;7.336;2023-02-23T15:30:27;11.60;99.90
12289;DHT22;6207;49.308;7.336;2023-02-23T15:33:04;11.80;99.90
12289;DHT22;6207;49.308;7.336;2023-02-23T15:35:39;11.70;99.90
12289;DHT22;6207;49.308;7.336;2023-02-23T15:38:07;11.80;99.90
12289;DHT22;6207;49.308;7.336;2023-02-23T15:40:53;11.90;99.90
12289;DHT22;6207;49.308;7.336;2023-02-23T15:43:21;11.70;99.90
12289;DHT22;6207;49.308;7.336;2023-02-23T15:45:52;11.70;99.90
12289;DHT22;6207;49.308;7.336;2023-02-23T15:48:22;11.60;99.90
12289;DHT22;6207;49.308;7.336;2023-02-23T15:50:52;11.50;99.90
12289;DHT22;6207;49.308;7.336;2023-02-23T15:55:55;11.50;99.90
12289;DHT22;6207;49.308;7.336;2023-02-23T15:58:35;11.40;99.90
12289;DHT22;6207;49.308;7.336;2023-02-23T16:01:21;11.20;99.90
12289;DHT22;6207;49.308;7.336;2023-02-23T16:03:58;11.30;99.90
12289;DHT22;6207;49.308;7.336;2023-02-23T16:06:31;11.40;99.90
12289;DHT22;6207;49.308;7.336;2023-02-23T16:09:25;11.30;99.90
12289;DHT22;6207;49.308;7.336;2023-02-23T16:12:03;11.30;99.90
12289;DHT22;6207;49.308;7.336;2023-02-23T16:17:06;11.30;99.90
12289;DHT22;6207;49.308;7.336;2023-02-23T16:19:38;11.20;99.90
12289;DHT22;6207;49.308;7.336;2023-02-23T16:22:15;11.20;99.90
12289;DHT22;6207;49.308;7.336;2023-02-23T16:24:44;11.10;99.90
12289;DHT22;6207;49.308;7.336;2023-02-23T16:27:11;11.10;99.90
12289;DHT22;6207;49.308;7.336;2023-02-23T16:29:38;11.00;99.90
12289;DHT22;6207;49.308;7.336;2023-02-23T16:32:18;11.00;99.90
12289;DHT22;6207;49.308;7.336;2023-02-23T16:37:18;11.00;99.90
12289;DHT22;6207;49.308;7.336;2023-02-23T16:39:48;11.00;99.90
12289;DHT22;6207;49.308;7.336;2023-02-23T16:42:26;10.90;99.90
12289;DHT22;6207;49.308;7.336;2023-02-23T16:44:53;10.90;99.90
12289;DHT22;6207;49.308;7.336;2023-02-23T16:49:50;10.80;99.90
12289;DHT22;6207;49.308;7.336;2023-02-23T16:52:19;10.80;99.90
12289;DHT22;6207;49.308;7.336;2023-02-23T16:54:47;10.70;99.90
12289;DHT22;6207;49.308;7.336;2023-02-23T16:57:23;10.70;99.90
12289;DHT22;6207;49.308;7.336;2023-02-23T16:59:51;10.70;99.90
12289;DHT22;6207;49.308;7.336;2023-02-23T17:02:20;10.70;99.90
12289;DHT22;6207;49.308;7.336;2023-02-23T17:04:50;10.70;99.90
12289;DHT22;6207;49.308;7.336;2023-02-23T17:07:19;10.60;99.90
12289;DHT22;6207;49.308;7.336;2023-02-23T17:09:49;10.60;99.90
12289;DHT22;6207;49.308;7.336;2023-02-23T17:12:16;10.60;99.90
12289;DHT22;6207;49.308;7.336;2023-02-23T17:14:47;10.60;99.90
12289;DHT22;6207;49.308;7.336;2023-02-23T17:17:16;10.50;99.90
12289;DHT22;6207;49.308;7.336;2023-02-23T17:19:43;10.50;99.90
12289;DHT22;6207;49.308;7.336;2023-02-23T17:22:11;10.50;99.90
12289;DHT22;6207;49.308;7.336;2023-02-23T17:24:39;10.40;99.90
12289;DHT22;6207;49.308;7.336;2023-02-23T17:27:07;10.40;99.90
12289;DHT22;6207;49.308;7.336;2023-02-23T17:29:33;10.40;99.90
12289;DHT22;6207;49.308;7.336;2023-02-23T17:32:01;10.40;99.90
12289;DHT22;6207;49.308;7.336;2023-02-23T17:34:28;10.30;99.90
12289;DHT22;6207;49.308;7.336;2023-02-23T17:36:55;10.20;99.90
12289;DHT22;6207;49.308;7.336;2023-02-23T17:39:22;10.10;99.90
12289;DHT22;6207;49.308;7.336;2023-02-23T17:41:53;10.00;99.90
12289;DHT22;6207;49.308;7.336;2023-02-23T17:44:20;10.00;99.90
12289;DHT22;6207;49.308;7.336;2023-02-23T17:46:47;9.90;99.90
12289;DHT22;6207;49.308;7.336;2023-02-23T17:49:14;9.90;99.90
12289;DHT22;6207;49.308;7.336;2023-02-23T17:51:41;9.80;99.90
12289;DHT22;6207;49.308;7.336;2023-02-23T17:54:07;9.70;99.90
12289;DHT22;6207;49.308;7.336;2023-02-23T17:56:34;9.60;99.90
12289;DHT22;6207;49.308;7.336;2023-02-23T17:59:01;9.60;99.90
12289;DHT22;6207;49.308;7.336;2023-02-23T18:01:28;9.50;99.90
12289;DHT22;6207;49.308;7.336;2023-02-23T18:03:55;9.50;99.90
12289;DHT22;6207;49.308;7.336;2023-02-23T18:06:24;9.50;99.90
12289;DHT22;6207;49.308;7.336;2023-02-23T18:08:50;9.40;99.90
12289;DHT22;6207;49.308;7.336;2023-02-23T18:11:18;9.20;99.90
12289;DHT22;6207;49.308;7.336;2023-02-23T18:13:45;9.20;99.90
12289;DHT22;6207;49.308;7.336;2023-02-23T18:16:14;9.10;99.90
12289;DHT22;6207;49.308;7.336;2023-02-23T18:18:44;9.00;99.90
12289;DHT22;6207;49.308;7.336;2023-02-23T18:21:17;9.00;99.90
12289;DHT22;6207;49.308;7.336;2023-02-23T18:23:45;9.00;99.90
12289;DHT22;6207;49.308;7.336;2023-02-23T18:26:15;9.00;99.90
12289;DHT22;6207;49.308;7.336;2023-02-23T18:28:41;8.90;99.90
12289;DHT22;6207;49.308;7.336;2023-02-23T18:31:22;8.90;99.90
12289;DHT22;6207;49.308;7.336;2023-02-23T18:33:50;8.90;99.90
12289;DHT22;6207;49.308;7.336;2023-02-23T18:38:47;8.90;99.90
12289;DHT22;6207;49.308;7.336;2023-02-23T18:41:14;8.80;99.90